createdAt,value
2023-01-13T00:00:48.751Z,9.443747
2023-01-13T00:01:48.740Z,9.443744
2023-01-13T00:02:48.733Z,9.443749
2023-01-13T00:03:48.726Z,9.443703
2023-01-13T00:04:48.797Z,9.443700
2023-01-13T00:05:48.741Z,9.443708
2023-01-13T00:06:48.685Z,9.443703
2023-01-13T00:07:48.735Z,9.443741
2023-01-13T00:08:48.682Z,9.443767
2023-01-13T00:09:48.680Z,9.443774
2023-01-13T00:10:48.652Z,9.443722
2023-01-13T00:11:48.671Z,9.443747
2023-01-13T00:12:48.668Z,9.443797
2023-01-13T00:13:48.674Z,9.443766
2023-01-13T00:14:48.637Z,9.443703
2023-01-13T00:15:48.792Z,9.443776
2023-01-13T00:16:48.627Z,9.443750
2023-01-13T00:17:48.659Z,9.443702
2023-01-13T00:18:48.607Z,9.443729
2023-01-13T00:19:48.652Z,9.443789
2023-01-13T00:20:48.592Z,9.443755
2023-01-13T00:21:48.591Z,9.443784
2023-01-13T00:22:48.604Z,9.443731
2023-01-13T00:23:48.585Z,9.443761
2023-01-13T00:24:48.548Z,9.443777
2023-01-13T00:25:49.578Z,9.443832
2023-01-13T00:26:48.555Z,9.443829
2023-01-13T00:27:48.602Z,9.443784
2023-01-13T00:28:48.544Z,9.443760
2023-01-13T00:29:48.559Z,9.443772
2023-01-13T00:30:48.522Z,9.443794
2023-01-13T00:31:48.512Z,9.443782
2023-01-13T00:32:48.506Z,9.443777
2023-01-13T00:33:48.515Z,9.443765
2023-01-13T00:34:48.513Z,9.443759
2023-01-13T00:35:48.492Z,9.443740
2023-01-13T00:36:48.497Z,9.443689
2023-01-13T00:37:48.473Z,9.443718
2023-01-13T00:38:48.494Z,9.443737
2023-01-13T00:39:48.468Z,9.443760
2023-01-13T00:40:48.459Z,9.443735
2023-01-13T00:41:48.466Z,9.443711
2023-01-13T00:42:48.489Z,9.443690
2023-01-13T00:43:48.443Z,9.443705
2023-01-13T00:44:48.457Z,9.443762
2023-01-13T00:45:48.431Z,9.443738
2023-01-13T00:46:48.467Z,9.443770
2023-01-13T00:47:48.431Z,9.443739
2023-01-13T00:48:48.421Z,9.443721
2023-01-13T00:49:48.405Z,9.443748
2023-01-13T00:50:48.393Z,9.443693
2023-01-13T00:51:48.397Z,9.443718
2023-01-13T00:52:48.377Z,9.443675
2023-01-13T00:53:48.375Z,9.443737
2023-01-13T00:54:48.432Z,9.443783
2023-01-13T00:55:48.355Z,9.443745
2023-01-13T00:56:48.358Z,9.443738
2023-01-13T00:57:48.368Z,9.443682
2023-01-13T00:58:48.379Z,9.443692
2023-01-13T00:59:49.603Z,9.443702
2023-01-13T01:00:49.362Z,9.443801
2023-01-13T01:01:48.433Z,9.443780
2023-01-13T01:02:48.361Z,9.443727
2023-01-13T01:03:48.336Z,9.443795
2023-01-13T01:04:48.349Z,9.443805
2023-01-13T01:05:48.336Z,9.443792
2023-01-13T01:06:48.288Z,9.443692
2023-01-13T01:07:48.290Z,9.443642
2023-01-13T01:08:48.331Z,9.443586
2023-01-13T01:09:48.278Z,9.443617
2023-01-13T01:10:48.387Z,9.443497
2023-01-13T01:11:48.266Z,9.443600
2023-01-13T01:12:48.301Z,9.443677
2023-01-13T01:13:48.251Z,9.443756
2023-01-13T01:14:48.260Z,9.443597
2023-01-13T01:15:48.295Z,9.443628
2023-01-13T01:16:48.290Z,9.443586
2023-01-13T01:17:48.222Z,9.443827
2023-01-13T01:18:49.200Z,9.443636
2023-01-13T01:19:48.293Z,9.443734
2023-01-13T01:20:48.187Z,9.443715
2023-01-13T01:21:48.225Z,9.443727
2023-01-13T01:22:48.175Z,9.443727
2023-01-13T01:23:48.163Z,9.443706
2023-01-13T01:24:48.160Z,9.443639
2023-01-13T01:25:49.172Z,9.443514
2023-01-13T01:26:48.170Z,9.443557
2023-01-13T01:27:48.143Z,9.443563
2023-01-13T01:28:48.198Z,9.443440
2023-01-13T01:29:48.116Z,9.443592
2023-01-13T01:30:48.131Z,9.443597
2023-01-13T01:31:48.183Z,9.443725
2023-01-13T01:32:48.104Z,9.443821
2023-01-13T01:33:48.096Z,9.443707
2023-01-13T01:34:48.110Z,9.443692
2023-01-13T01:35:48.108Z,9.443570
2023-01-13T01:36:48.079Z,9.443625
2023-01-13T01:37:48.078Z,9.443640
2023-01-13T01:38:48.074Z,9.443781
2023-01-13T01:39:48.066Z,9.443742
2023-01-13T01:40:48.068Z,9.443737
2023-01-13T01:41:48.071Z,9.443701
2023-01-13T01:42:49.063Z,9.443677
2023-01-13T01:43:48.062Z,9.443748
2023-01-13T01:44:49.849Z,9.443776
2023-01-13T01:45:48.032Z,9.443769
2023-01-13T01:46:48.048Z,9.443778
2023-01-13T01:47:48.016Z,9.443826
2023-01-13T01:48:48.066Z,9.443784
2023-01-13T01:49:47.990Z,9.443786
2023-01-13T01:50:47.983Z,9.443803
2023-01-13T01:51:47.977Z,9.443860
2023-01-13T01:52:47.976Z,9.443810
2023-01-13T01:53:47.974Z,9.443773
2023-01-13T01:54:47.994Z,9.443811
2023-01-13T01:55:47.958Z,9.443801
2023-01-13T01:56:47.941Z,9.443754
2023-01-13T01:57:47.940Z,9.443769
2023-01-13T01:58:47.958Z,9.443803
2023-01-13T01:59:47.972Z,9.443768
2023-01-13T02:00:47.985Z,9.443733
2023-01-13T02:01:48.152Z,9.443738
2023-01-13T02:02:48.054Z,9.443700
2023-01-13T02:03:47.909Z,9.443692
2023-01-13T02:04:47.904Z,9.443772
2023-01-13T02:05:47.902Z,9.443702
2023-01-13T02:06:47.898Z,9.443687
2023-01-13T02:07:47.897Z,9.443719
2023-01-13T02:08:48.033Z,9.443748
2023-01-13T02:09:47.882Z,9.443729
2023-01-13T02:10:47.880Z,9.443747
2023-01-13T02:11:47.855Z,9.443727
2023-01-13T02:12:47.858Z,9.443723
2023-01-13T02:13:47.848Z,9.443768
2023-01-13T02:14:47.831Z,9.443781
2023-01-13T02:15:47.857Z,9.443809
2023-01-13T02:16:47.814Z,9.443781
2023-01-13T02:17:47.804Z,9.443855
2023-01-13T02:18:47.794Z,9.443794
2023-01-13T02:19:47.800Z,9.443851
2023-01-13T02:20:47.790Z,9.443861
2023-01-13T02:21:47.784Z,9.443838
2023-01-13T02:22:47.776Z,9.443837
2023-01-13T02:23:47.761Z,9.443831
2023-01-13T02:24:47.774Z,9.443743
2023-01-13T02:25:47.852Z,9.443769
2023-01-13T02:26:47.739Z,9.443899
2023-01-13T02:27:47.749Z,9.444041
2023-01-13T02:28:47.750Z,9.443902
2023-01-13T02:29:47.755Z,9.443748
2023-01-13T02:30:47.717Z,9.443899
2023-01-13T02:31:47.737Z,9.443832
2023-01-13T02:32:47.702Z,9.443850
2023-01-13T02:33:47.725Z,9.443892
2023-01-13T02:34:47.712Z,9.443997
2023-01-13T02:35:47.698Z,9.443780
2023-01-13T02:36:47.684Z,9.443593
2023-01-13T02:37:47.690Z,9.443552
2023-01-13T02:38:47.730Z,9.443557
2023-01-13T02:39:47.661Z,9.443584
2023-01-13T02:40:47.719Z,9.443531
2023-01-13T02:41:47.679Z,9.443669
2023-01-13T02:42:47.667Z,9.443617
2023-01-13T02:43:47.652Z,9.443599
2023-01-13T02:44:47.649Z,9.443582
2023-01-13T02:45:47.678Z,9.443640
2023-01-13T02:46:47.616Z,9.443705
2023-01-13T02:47:47.630Z,9.443611
2023-01-13T02:48:47.625Z,9.443596
2023-01-13T02:49:47.675Z,9.443722
2023-01-13T02:50:47.598Z,9.443781
2023-01-13T02:51:47.583Z,9.443650
2023-01-13T02:52:47.594Z,9.443650
2023-01-13T02:53:47.571Z,9.443599
2023-01-13T02:54:47.573Z,9.443632
2023-01-13T02:55:47.587Z,9.443645
2023-01-13T02:56:47.593Z,9.443634
2023-01-13T02:57:47.543Z,9.443632
2023-01-13T02:58:47.544Z,9.443544
2023-01-13T02:59:47.565Z,9.443547
2023-01-13T03:00:47.587Z,9.443562
2023-01-13T03:01:47.653Z,9.443520
2023-01-13T03:02:47.598Z,9.443605
2023-01-13T03:03:47.541Z,9.443609
2023-01-13T03:04:47.509Z,9.443537
2023-01-13T03:05:47.503Z,9.443518
2023-01-13T03:06:47.528Z,9.443519
2023-01-13T03:07:47.542Z,9.443567
2023-01-13T03:08:47.537Z,9.443605
2023-01-13T03:09:47.484Z,9.443729
2023-01-13T03:10:47.489Z,9.443650
2023-01-13T03:11:47.471Z,9.443682
2023-01-13T03:12:47.479Z,9.443662
2023-01-13T03:13:47.475Z,9.443702
2023-01-13T03:14:47.452Z,9.443678
2023-01-13T03:15:47.452Z,9.443683
2023-01-13T03:16:47.478Z,9.443681
2023-01-13T03:17:47.408Z,9.443687
2023-01-13T03:18:48.432Z,9.443714
2023-01-13T03:19:47.420Z,9.443653
2023-01-13T03:20:47.404Z,9.443725
2023-01-13T03:21:47.398Z,9.443638
2023-01-13T03:22:47.385Z,9.443654
2023-01-13T03:23:47.392Z,9.443627
2023-01-13T03:24:47.383Z,9.443617
2023-01-13T03:25:47.363Z,9.443654
2023-01-13T03:26:47.381Z,9.443653
2023-01-13T03:27:47.362Z,9.443669
2023-01-13T03:28:47.348Z,9.443604
2023-01-13T03:29:47.348Z,9.443666
2023-01-13T03:30:47.374Z,9.443789
2023-01-13T03:31:47.357Z,9.443584
2023-01-13T03:32:47.320Z,9.443512
2023-01-13T03:33:47.343Z,9.443623
2023-01-13T03:34:47.318Z,9.443739
2023-01-13T03:35:48.363Z,9.443742
2023-01-13T03:36:47.319Z,9.443723
2023-01-13T03:37:47.296Z,9.443812
2023-01-13T03:38:47.307Z,9.443799
2023-01-13T03:39:47.296Z,9.443750
2023-01-13T03:40:47.274Z,9.443684
2023-01-13T03:41:47.300Z,9.443726
2023-01-13T03:42:47.248Z,9.443715
2023-01-13T03:43:47.286Z,9.443771
2023-01-13T03:44:47.252Z,9.443748
2023-01-13T03:45:47.266Z,9.443798
2023-01-13T03:46:47.287Z,9.443800
2023-01-13T03:47:47.222Z,9.443679
2023-01-13T03:48:47.244Z,9.443444
2023-01-13T03:49:47.223Z,9.443689
2023-01-13T03:50:47.212Z,9.443791
2023-01-13T03:51:47.299Z,9.443885
2023-01-13T03:52:47.197Z,9.443737
2023-01-13T03:53:47.214Z,9.443666
2023-01-13T03:54:47.217Z,9.443653
2023-01-13T03:55:47.185Z,9.443633
2023-01-13T03:56:47.193Z,9.443571
2023-01-13T03:57:47.216Z,9.443731
2023-01-13T03:58:47.155Z,9.443722
2023-01-13T03:59:47.161Z,9.443754
2023-01-13T04:00:47.152Z,9.443780
2023-01-13T04:01:47.293Z,9.443647
2023-01-13T04:02:47.165Z,9.443725
2023-01-13T04:03:47.142Z,9.443807
2023-01-13T04:04:47.115Z,9.443725
2023-01-13T04:05:47.127Z,9.443632
2023-01-13T04:06:47.101Z,9.443509
2023-01-13T04:07:47.114Z,9.443493
2023-01-13T04:08:47.130Z,9.443598
2023-01-13T04:09:47.082Z,9.443862
2023-01-13T04:10:47.097Z,9.443698
2023-01-13T04:11:47.073Z,9.443599
2023-01-13T04:12:47.093Z,9.443539
2023-01-13T04:13:47.061Z,9.443217
2023-01-13T04:14:47.054Z,9.443374
2023-01-13T04:15:47.112Z,9.443445
2023-01-13T04:16:47.040Z,9.443430
2023-01-13T04:17:47.030Z,9.443311
2023-01-13T04:18:47.047Z,9.443253
2023-01-13T04:19:47.057Z,9.443241
2023-01-13T04:20:47.010Z,9.443185
2023-01-13T04:21:47.005Z,9.443526
2023-01-13T04:22:47.032Z,9.443789
2023-01-13T04:23:47.032Z,9.443865
2023-01-13T04:24:47.030Z,9.443851
2023-01-13T04:25:47.014Z,9.443806
2023-01-13T04:26:46.981Z,9.443782
2023-01-13T04:27:46.973Z,9.443804
2023-01-13T04:28:47.010Z,9.443875
2023-01-13T04:29:46.973Z,9.443770
2023-01-13T04:30:47.008Z,9.443781
2023-01-13T04:31:46.960Z,9.443782
2023-01-13T04:32:46.950Z,9.443705
2023-01-13T04:33:46.923Z,9.443703
2023-01-13T04:34:46.930Z,9.443741
2023-01-13T04:35:46.931Z,9.443785
2023-01-13T04:36:46.950Z,9.443775
2023-01-13T04:37:46.902Z,9.443706
2023-01-13T04:38:46.913Z,9.443730
2023-01-13T04:39:46.912Z,9.443662
2023-01-13T04:40:46.896Z,9.443716
2023-01-13T04:41:46.932Z,9.443707
2023-01-13T04:42:46.865Z,9.443747
2023-01-13T04:43:46.864Z,9.443819
2023-01-13T04:44:46.909Z,9.443714
2023-01-13T04:45:46.855Z,9.443780
2023-01-13T04:46:46.862Z,9.443745
2023-01-13T04:47:46.913Z,9.443748
2023-01-13T04:48:46.832Z,9.443762
2023-01-13T04:49:46.831Z,9.443704
2023-01-13T04:50:46.813Z,9.443725
2023-01-13T04:51:46.828Z,9.443708
2023-01-13T04:52:46.828Z,9.443719
2023-01-13T04:53:46.806Z,9.443715
2023-01-13T04:54:46.811Z,9.443715
2023-01-13T04:55:46.791Z,9.443727
2023-01-13T04:56:46.789Z,9.443728
2023-01-13T04:57:46.906Z,9.443738
2023-01-13T04:58:46.772Z,9.443716
2023-01-13T04:59:46.766Z,9.443704
2023-01-13T05:00:46.803Z,9.443770
2023-01-13T05:01:46.823Z,9.443743
2023-01-13T05:02:46.740Z,9.443753
2023-01-13T05:03:46.793Z,9.443739
2023-01-13T05:04:46.735Z,9.443745
2023-01-13T05:05:47.714Z,9.443752
2023-01-13T05:06:47.506Z,9.443756
2023-01-13T05:07:46.704Z,9.443704
2023-01-13T05:08:46.709Z,9.443709
2023-01-13T05:09:46.693Z,9.443777
2023-01-13T05:10:47.560Z,9.443813
2023-01-13T05:11:46.674Z,9.443770
2023-01-13T05:12:46.669Z,9.443718
2023-01-13T05:13:46.752Z,9.443691
2023-01-13T05:14:46.659Z,9.443702
2023-01-13T05:15:46.698Z,9.443711
2023-01-13T05:16:46.649Z,9.443732
2023-01-13T05:17:46.651Z,9.443711
2023-01-13T05:18:46.629Z,9.443690
2023-01-13T05:19:46.656Z,9.443755
2023-01-13T05:20:46.622Z,9.443803
2023-01-13T05:21:46.618Z,9.443810
2023-01-13T05:22:46.696Z,9.443750
2023-01-13T05:23:46.604Z,9.443756
2023-01-13T05:24:46.596Z,9.443729
2023-01-13T05:25:46.607Z,9.443702
2023-01-13T05:26:46.593Z,9.443692
2023-01-13T05:27:46.572Z,9.443665
2023-01-13T05:28:46.594Z,9.443688
2023-01-13T05:29:46.563Z,9.443739
2023-01-13T05:30:46.650Z,9.443735
2023-01-13T05:31:47.039Z,9.443759
2023-01-13T05:32:46.604Z,9.443797
2023-01-13T05:33:46.542Z,9.443817
2023-01-13T05:34:46.526Z,9.443791
2023-01-13T05:35:46.576Z,9.443780
2023-01-13T05:36:46.522Z,9.443830
2023-01-13T05:37:46.518Z,9.443780
2023-01-13T05:38:46.546Z,9.443773
2023-01-13T05:39:46.494Z,9.443805
2023-01-13T05:40:46.481Z,9.443823
2023-01-13T05:41:46.537Z,9.443913
2023-01-13T05:42:46.471Z,9.443852
2023-01-13T05:43:46.513Z,9.443830
2023-01-13T05:44:46.458Z,9.443773
2023-01-13T05:45:46.446Z,9.443808
2023-01-13T05:46:46.562Z,9.443767
2023-01-13T05:47:46.459Z,9.443790
2023-01-13T05:48:46.423Z,9.443747
2023-01-13T05:49:46.452Z,9.443732
2023-01-13T05:50:46.442Z,9.443727
2023-01-13T05:51:46.431Z,9.443743
2023-01-13T05:52:46.442Z,9.443727
2023-01-13T05:53:47.033Z,9.443789
2023-01-13T05:54:46.395Z,9.443754
2023-01-13T05:55:47.052Z,9.443755
2023-01-13T05:56:46.380Z,9.443724
2023-01-13T05:57:46.390Z,9.443650
2023-01-13T05:58:46.382Z,9.443648
2023-01-13T05:59:46.384Z,9.443669
2023-01-13T06:00:46.381Z,9.443709
2023-01-13T06:01:46.382Z,9.443772
2023-01-13T06:02:46.386Z,9.443700
2023-01-13T06:03:47.018Z,9.443634
2023-01-13T06:04:46.449Z,9.443707
2023-01-13T06:05:46.328Z,9.443697
2023-01-13T06:06:47.305Z,9.443707
2023-01-13T06:07:46.765Z,9.443644
2023-01-13T06:08:47.034Z,9.443607
2023-01-13T06:09:46.293Z,9.443561
2023-01-13T06:10:46.301Z,9.443563
2023-01-13T06:11:46.469Z,9.443524
2023-01-13T06:12:46.324Z,9.443466
2023-01-13T06:13:46.273Z,9.443327
2023-01-13T06:14:46.329Z,9.443254
2023-01-13T06:15:46.384Z,9.443202
2023-01-13T06:16:46.340Z,9.443293
2023-01-13T06:17:46.237Z,9.443320
2023-01-13T06:18:46.259Z,9.443401
2023-01-13T06:19:46.258Z,9.443509
2023-01-13T06:20:46.214Z,9.443626
2023-01-13T06:21:46.217Z,9.443583
2023-01-13T06:22:46.273Z,9.443544
2023-01-13T06:23:46.217Z,9.443435
2023-01-13T06:24:46.189Z,9.443381
2023-01-13T06:25:46.279Z,9.443434
2023-01-13T06:26:46.176Z,9.443470
2023-01-13T06:27:46.184Z,9.443434
2023-01-13T06:28:46.328Z,9.443574
2023-01-13T06:29:46.154Z,9.443617
2023-01-13T06:30:46.189Z,9.443530
2023-01-13T06:31:46.255Z,9.443479
2023-01-13T06:32:46.145Z,9.443542
2023-01-13T06:33:46.130Z,9.443613
2023-01-13T06:34:46.185Z,9.443574
2023-01-13T06:35:46.124Z,9.443478
2023-01-13T06:36:46.130Z,9.443666
2023-01-13T06:37:46.221Z,9.443584
2023-01-13T06:38:47.111Z,9.443646
2023-01-13T06:39:46.105Z,9.443637
2023-01-13T06:40:46.170Z,9.443645
2023-01-13T06:41:46.110Z,9.443574
2023-01-13T06:42:46.085Z,9.443567
2023-01-13T06:43:46.168Z,9.443637
2023-01-13T06:44:46.068Z,9.443578
2023-01-13T06:45:46.074Z,9.443702
2023-01-13T06:46:46.936Z,9.443558
2023-01-13T06:47:46.081Z,9.443593
2023-01-13T06:48:46.039Z,9.443584
2023-01-13T06:49:46.085Z,9.443582
2023-01-13T06:50:46.033Z,9.443674
2023-01-13T06:51:46.051Z,9.443610
2023-01-13T06:52:46.064Z,9.443576
2023-01-13T06:53:46.014Z,9.443635
2023-01-13T06:54:46.014Z,9.443667
2023-01-13T06:55:47.061Z,9.443609
2023-01-13T06:56:45.997Z,9.443641
2023-01-13T06:57:46.012Z,9.443554
2023-01-13T06:58:46.026Z,9.443563
2023-01-13T06:59:45.980Z,9.443590
2023-01-13T07:00:46.003Z,9.443607
2023-01-13T07:01:46.192Z,9.443558
2023-01-13T07:02:45.985Z,9.443589
2023-01-13T07:03:45.955Z,9.443604
2023-01-13T07:04:45.980Z,9.443669
2023-01-13T07:05:45.934Z,9.443681
2023-01-13T07:06:45.938Z,9.443667
2023-01-13T07:07:46.010Z,9.443660
2023-01-13T07:08:45.920Z,9.443644
2023-01-13T07:09:45.908Z,9.443666
2023-01-13T07:10:45.951Z,9.443675
2023-01-13T07:11:45.912Z,9.443711
2023-01-13T07:12:45.901Z,9.443608
2023-01-13T07:13:45.942Z,9.443666
2023-01-13T07:14:45.885Z,9.443660
2023-01-13T07:15:45.891Z,9.443692
2023-01-13T07:16:45.988Z,9.443750
2023-01-13T07:17:45.861Z,9.443721
2023-01-13T07:18:45.867Z,9.443667
2023-01-13T07:19:45.860Z,9.443591
2023-01-13T07:20:45.855Z,9.443615
2023-01-13T07:21:45.838Z,9.443723
2023-01-13T07:22:45.851Z,9.443768
2023-01-13T07:23:45.843Z,9.443795
2023-01-13T07:24:45.819Z,9.443593
2023-01-13T07:25:45.832Z,9.443455
2023-01-13T07:26:45.866Z,9.443548
2023-01-13T07:27:45.822Z,9.443681
2023-01-13T07:28:45.823Z,9.443790
2023-01-13T07:29:45.792Z,9.443690
2023-01-13T07:30:45.784Z,9.443695
2023-01-13T07:31:47.603Z,9.443587
2023-01-13T07:32:45.771Z,9.443725
2023-01-13T07:33:45.800Z,9.443856
2023-01-13T07:34:45.775Z,9.443695
2023-01-13T07:35:45.749Z,9.443692
2023-01-13T07:36:45.743Z,9.443646
2023-01-13T07:37:45.759Z,9.443846
2023-01-13T07:38:45.755Z,9.443769
2023-01-13T07:39:45.743Z,9.443871
2023-01-13T07:40:45.726Z,9.443821
2023-01-13T07:41:45.719Z,9.443633
2023-01-13T07:42:45.715Z,9.443526
2023-01-13T07:43:45.719Z,9.443515
2023-01-13T07:44:45.736Z,9.443588
2023-01-13T07:45:45.761Z,9.443669
2023-01-13T07:46:45.691Z,9.443778
2023-01-13T07:47:45.709Z,9.443640
2023-01-13T07:48:45.681Z,9.443792
2023-01-13T07:49:45.689Z,9.443753
2023-01-13T07:50:45.666Z,9.443715
2023-01-13T07:51:45.678Z,9.443645
2023-01-13T07:52:45.690Z,9.443603
2023-01-13T07:53:45.677Z,9.443604
2023-01-13T07:54:45.667Z,9.443715
2023-01-13T07:55:45.698Z,9.443767
2023-01-13T07:56:45.775Z,9.443660
2023-01-13T07:57:45.685Z,9.443627
2023-01-13T07:58:45.682Z,9.443537
2023-01-13T07:59:45.665Z,9.443598
2023-01-13T08:00:45.671Z,9.443688
2023-01-13T08:01:45.779Z,9.443694
2023-01-13T08:02:45.654Z,9.443746
2023-01-13T08:03:45.681Z,9.443748
2023-01-13T08:04:45.602Z,9.443698
2023-01-13T08:05:45.594Z,9.443707
2023-01-13T08:06:45.619Z,9.443752
2023-01-13T08:07:45.567Z,9.443736
2023-01-13T08:08:45.558Z,9.443713
2023-01-13T08:09:45.589Z,9.443720
2023-01-13T08:10:45.579Z,9.443695
2023-01-13T08:11:45.558Z,9.443704
2023-01-13T08:12:52.167Z,9.443731
2023-01-13T08:13:46.532Z,9.443737
2023-01-13T08:14:45.527Z,9.443706
2023-01-13T08:15:45.559Z,9.443833
2023-01-13T08:16:45.654Z,9.443836
2023-01-13T08:17:45.507Z,9.443818
2023-01-13T08:18:45.507Z,9.443819
2023-01-13T08:19:45.507Z,9.443746
2023-01-13T08:20:45.522Z,9.443745
2023-01-13T08:21:45.553Z,9.443797
2023-01-13T08:22:45.512Z,9.443819
2023-01-13T08:23:45.493Z,9.443842
2023-01-13T08:24:45.482Z,9.443739
2023-01-13T08:25:45.475Z,9.443770
2023-01-13T08:26:45.601Z,9.443790
2023-01-13T08:27:45.483Z,9.443770
2023-01-13T08:28:45.444Z,9.443707
2023-01-13T08:29:45.501Z,9.443739
2023-01-13T08:30:45.491Z,9.443687
2023-01-13T08:31:45.423Z,9.443726
2023-01-13T08:32:45.446Z,9.443713
2023-01-13T08:33:45.451Z,9.443711
2023-01-13T08:34:45.415Z,9.443774
2023-01-13T08:35:45.411Z,9.443802
2023-01-13T08:36:45.417Z,9.443755
2023-01-13T08:37:45.422Z,9.443740
2023-01-13T08:38:45.411Z,9.443810
2023-01-13T08:39:45.437Z,9.443681
2023-01-13T08:40:45.387Z,9.443536
2023-01-13T08:41:45.383Z,9.443493
2023-01-13T08:42:48.378Z,9.443732
2023-01-13T08:43:45.494Z,9.443903
2023-01-13T08:44:45.359Z,9.443773
2023-01-13T08:45:45.424Z,9.443680
2023-01-13T08:46:45.345Z,9.443749
2023-01-13T08:47:45.335Z,9.443679
2023-01-13T08:48:45.375Z,9.443902
2023-01-13T08:49:45.346Z,9.443788
2023-01-13T08:50:45.366Z,9.443806
2023-01-13T08:51:45.351Z,9.443778
2023-01-13T08:52:45.306Z,9.443578
2023-01-13T08:53:45.320Z,9.443715
2023-01-13T08:54:45.303Z,9.443748
2023-01-13T08:55:45.281Z,9.443693
2023-01-13T08:56:45.325Z,9.443698
2023-01-13T08:57:46.291Z,9.443709
2023-01-13T08:58:45.272Z,9.443663
2023-01-13T08:59:45.305Z,9.443700
2023-01-13T09:00:45.267Z,9.443701
2023-01-13T09:01:45.423Z,9.443702
2023-01-13T09:02:45.249Z,9.443688
2023-01-13T09:03:45.334Z,9.443667
2023-01-13T09:04:45.299Z,9.443695
2023-01-13T09:05:45.223Z,9.443713
2023-01-13T09:06:45.221Z,9.443698
2023-01-13T09:07:45.210Z,9.443714
2023-01-13T09:08:45.224Z,9.443722
2023-01-13T09:09:45.238Z,9.443697
2023-01-13T09:10:45.193Z,9.443745
2023-01-13T09:11:45.197Z,9.443747
2023-01-13T09:12:45.185Z,9.443761
2023-01-13T09:13:45.181Z,9.443741
2023-01-13T09:14:45.180Z,9.443744
2023-01-13T09:15:45.209Z,9.443718
2023-01-13T09:16:45.185Z,9.443780
2023-01-13T09:17:45.150Z,9.443832
2023-01-13T09:18:45.136Z,9.443817
2023-01-13T09:19:45.186Z,9.443850
2023-01-13T09:20:45.124Z,9.443874
2023-01-13T09:21:45.131Z,9.443832
2023-01-13T09:22:45.126Z,9.443791
2023-01-13T09:23:45.120Z,9.443785
2023-01-13T09:24:45.112Z,9.443736
2023-01-13T09:25:45.159Z,9.443763
2023-01-13T09:26:45.087Z,9.443770
2023-01-13T09:27:45.090Z,9.443763
2023-01-13T09:28:45.225Z,9.443783
2023-01-13T09:29:45.066Z,9.443807
2023-01-13T09:30:45.076Z,9.443773
2023-01-13T09:31:45.158Z,9.443835
2023-01-13T09:32:45.047Z,9.443845
2023-01-13T09:33:45.049Z,9.443750
2023-01-13T09:34:45.081Z,9.443592
2023-01-13T09:35:45.050Z,9.443618
2023-01-13T09:36:45.016Z,9.443633
2023-01-13T09:37:45.049Z,9.443614
2023-01-13T09:38:45.010Z,9.443643
2023-01-13T09:39:45.035Z,9.443542
2023-01-13T09:40:45.086Z,9.443711
2023-01-13T09:41:45.022Z,9.443713
2023-01-13T09:42:44.983Z,9.443724
2023-01-13T09:43:45.058Z,9.443618
2023-01-13T09:44:44.982Z,9.443663
2023-01-13T09:45:45.003Z,9.443692
2023-01-13T09:46:45.282Z,9.443686
2023-01-13T09:47:45.002Z,9.443575
2023-01-13T09:48:44.997Z,9.443632
2023-01-13T09:49:44.937Z,9.443636
2023-01-13T09:50:44.934Z,9.443616
2023-01-13T09:51:44.972Z,9.443631
2023-01-13T09:52:44.943Z,9.443741
2023-01-13T09:53:45.034Z,9.443771
2023-01-13T09:54:45.111Z,9.443738
2023-01-13T09:55:44.901Z,9.443767
2023-01-13T09:56:44.932Z,9.443740
2023-01-13T09:57:44.925Z,9.443732
2023-01-13T09:58:44.881Z,9.443669
2023-01-13T09:59:44.910Z,9.443737
2023-01-13T10:00:44.972Z,9.443727
2023-01-13T10:01:44.869Z,9.443665
2023-01-13T10:02:44.869Z,9.443707
2023-01-13T10:03:44.961Z,9.443713
2023-01-13T10:04:44.915Z,9.443745
2023-01-13T10:05:44.841Z,9.443735
2023-01-13T10:06:44.889Z,9.443741
2023-01-13T10:07:44.864Z,9.443734
2023-01-13T10:08:44.829Z,9.443771
2023-01-13T10:09:44.821Z,9.443828
2023-01-13T10:10:45.810Z,9.443777
2023-01-13T10:11:44.823Z,9.443770
2023-01-13T10:12:44.820Z,9.443753
2023-01-13T10:13:44.796Z,9.443701
2023-01-13T10:14:44.781Z,9.443812
2023-01-13T10:15:44.819Z,9.443856
2023-01-13T10:16:44.807Z,9.443736
2023-01-13T10:17:44.778Z,9.443756
2023-01-13T10:18:44.947Z,9.443724
2023-01-13T10:19:44.770Z,9.443674
2023-01-13T10:20:44.817Z,9.443646
2023-01-13T10:21:44.762Z,9.443558
2023-01-13T10:22:44.761Z,9.443587
2023-01-13T10:23:44.740Z,9.443685
2023-01-13T10:24:44.761Z,9.443739
2023-01-13T10:25:44.742Z,9.443824
2023-01-13T10:26:44.715Z,9.443807
2023-01-13T10:27:44.697Z,9.443688
2023-01-13T10:28:44.720Z,9.443723
2023-01-13T10:29:44.706Z,9.443732
2023-01-13T10:30:44.680Z,9.443693
2023-01-13T10:31:44.873Z,9.443726
2023-01-13T10:32:44.677Z,9.443780
2023-01-13T10:33:44.691Z,9.443719
2023-01-13T10:34:44.734Z,9.443629
2023-01-13T10:35:44.647Z,9.443588
2023-01-13T10:36:44.661Z,9.443644
2023-01-13T10:37:44.657Z,9.443723
2023-01-13T10:38:44.630Z,9.443750
2023-01-13T10:39:44.673Z,9.443727
2023-01-13T10:40:45.030Z,9.443853
2023-01-13T10:41:44.644Z,9.443742
2023-01-13T10:42:44.608Z,9.443784
2023-01-13T10:43:44.610Z,9.443748
2023-01-13T10:44:44.606Z,9.443691
2023-01-13T10:45:44.605Z,9.443666
2023-01-13T10:46:45.650Z,9.443688
2023-01-13T10:47:44.600Z,9.443761
2023-01-13T10:48:44.577Z,9.443739
2023-01-13T10:49:44.564Z,9.443721
2023-01-13T10:50:44.622Z,9.443604
2023-01-13T10:51:44.573Z,9.443606
2023-01-13T10:52:44.732Z,9.443666
2023-01-13T10:53:44.649Z,9.443600
2023-01-13T10:54:44.546Z,9.443608
2023-01-13T10:55:44.552Z,9.443706
2023-01-13T10:56:44.537Z,9.443686
2023-01-13T10:57:44.524Z,9.443623
2023-01-13T10:58:44.569Z,9.443640
2023-01-13T10:59:44.575Z,9.443633
2023-01-13T11:00:44.504Z,9.443688
2023-01-13T11:01:44.583Z,9.443700
2023-01-13T11:02:44.567Z,9.443660
2023-01-13T11:03:44.540Z,9.443612
2023-01-13T11:04:44.561Z,9.443648
2023-01-13T11:05:44.476Z,9.443491
2023-01-13T11:06:44.480Z,9.443634
2023-01-13T11:07:44.466Z,9.443675
2023-01-13T11:08:44.472Z,9.443645
2023-01-13T11:09:44.498Z,9.443598
2023-01-13T11:10:44.530Z,9.443575
2023-01-13T11:11:44.460Z,9.443583
2023-01-13T11:12:44.431Z,9.443613
2023-01-13T11:13:44.504Z,9.443599
2023-01-13T11:14:44.435Z,9.443631
2023-01-13T11:15:44.464Z,9.443679
2023-01-13T11:16:53.018Z,9.443584
2023-01-13T11:17:46.419Z,9.443559
2023-01-13T11:18:44.443Z,9.443515
2023-01-13T11:19:44.468Z,9.443561
2023-01-13T11:20:44.523Z,9.443588
2023-01-13T11:21:44.380Z,9.443590
2023-01-13T11:22:44.373Z,9.443592
2023-01-13T11:23:44.398Z,9.443519
2023-01-13T11:24:44.362Z,9.443440
2023-01-13T11:25:44.378Z,9.443468
2023-01-13T11:26:44.398Z,9.443585
2023-01-13T11:27:44.333Z,9.443596
2023-01-13T11:28:44.353Z,9.443623
2023-01-13T11:29:44.331Z,9.443553
2023-01-13T11:30:44.377Z,9.443572
2023-01-13T11:31:44.363Z,9.443507
2023-01-13T11:32:44.322Z,9.443625
2023-01-13T11:33:44.359Z,9.443722
2023-01-13T11:34:44.295Z,9.443691
2023-01-13T11:35:44.294Z,9.443715
2023-01-13T11:36:44.366Z,9.443694
2023-01-13T11:37:44.281Z,9.443729
2023-01-13T11:38:44.299Z,9.443809
2023-01-13T11:39:44.335Z,9.443744
2023-01-13T11:40:44.293Z,9.443686
2023-01-13T11:41:44.297Z,9.443677
2023-01-13T11:42:44.242Z,9.443748
2023-01-13T11:43:44.241Z,9.443729
2023-01-13T11:44:44.239Z,9.443615